createdAt,value
2024-03-04T00:02:29.019Z,24.80
2024-03-04T00:04:59.341Z,24.80
2024-03-04T00:07:29.292Z,24.70
2024-03-04T00:09:59.690Z,24.70
2024-03-04T00:12:30.225Z,24.50
2024-03-04T00:15:00.483Z,24.50
2024-03-04T00:17:31.817Z,24.70
2024-03-04T00:20:08.688Z,24.60
2024-03-04T00:22:39.485Z,24.50
2024-03-04T00:25:11.415Z,24.50
2024-03-04T00:27:41.617Z,24.50
2024-03-04T00:30:14.964Z,24.60
2024-03-04T00:32:45.313Z,24.70
2024-03-04T00:35:16.276Z,24.60
2024-03-04T00:37:46.700Z,24.60
2024-03-04T00:40:16.783Z,24.70
2024-03-04T00:42:46.989Z,24.80
2024-03-04T00:45:16.867Z,24.90
2024-03-04T00:47:50.201Z,25.00
2024-03-04T00:50:20.830Z,25.20
2024-03-04T00:52:51.085Z,25.40
2024-03-04T00:55:23.094Z,25.50
2024-03-04T00:57:54.274Z,25.50
2024-03-04T01:00:27.636Z,25.60
2024-03-04T01:02:57.770Z,25.60
2024-03-04T01:05:27.697Z,25.70
2024-03-04T01:07:57.811Z,25.70
2024-03-04T01:10:27.753Z,25.70
2024-03-04T01:12:58.084Z,25.70
2024-03-04T01:15:28.591Z,25.70
2024-03-04T01:17:59.546Z,25.60
2024-03-04T01:20:30.324Z,25.70
2024-03-04T01:23:00.233Z,25.70
2024-03-04T01:25:30.136Z,25.80
2024-03-04T01:28:00.806Z,25.80
2024-03-04T01:30:30.735Z,25.70
2024-03-04T01:33:02.197Z,25.70
2024-03-04T01:35:32.719Z,25.70
2024-03-04T01:38:02.904Z,25.90
2024-03-04T01:40:33.305Z,26.20
2024-03-04T01:43:03.281Z,26.40
2024-03-04T01:45:34.473Z,26.40
2024-03-04T01:48:07.269Z,26.40
2024-03-04T01:50:41.832Z,26.50
2024-03-04T01:53:12.738Z,26.50
2024-03-04T01:56:06.503Z,26.70
2024-03-04T01:58:41.862Z,26.90
2024-03-04T02:01:12.560Z,27.00
2024-03-04T02:03:42.614Z,26.90
2024-03-04T02:06:12.717Z,26.90
2024-03-04T02:08:42.905Z,27.10
2024-03-04T02:11:15.231Z,27.20
2024-03-04T02:13:45.399Z,27.40
2024-03-04T02:16:16.016Z,27.60
2024-03-04T02:18:46.760Z,27.60
2024-03-04T02:21:22.912Z,27.70
2024-03-04T02:23:53.192Z,27.80
2024-03-04T02:26:23.063Z,27.90
2024-03-04T02:28:53.065Z,28.20
2024-03-04T02:31:23.514Z,28.40
2024-03-04T02:33:54.915Z,28.30
2024-03-04T02:36:25.883Z,28.50
2024-03-04T02:38:56.406Z,28.80
2024-03-04T02:41:29.085Z,29.00
2024-03-04T02:43:59.132Z,29.20
2024-03-04T02:46:29.536Z,29.20
2024-03-04T02:49:00.145Z,29.50
2024-03-04T02:51:30.383Z,29.60
2024-03-04T02:54:01.220Z,29.80
2024-03-04T02:56:31.494Z,29.60
2024-03-04T02:59:01.676Z,29.60
2024-03-04T03:01:31.846Z,29.50
2024-03-04T03:04:01.779Z,29.60
2024-03-04T03:06:32.087Z,29.60
2024-03-04T03:09:03.191Z,29.60
2024-03-04T03:11:33.604Z,29.60
2024-03-04T03:14:03.729Z,29.60
2024-03-04T03:16:37.996Z,29.50
2024-03-04T03:19:07.881Z,29.50
2024-03-04T03:21:38.758Z,29.50
2024-03-04T03:24:08.710Z,29.80
2024-03-04T03:26:38.970Z,30.10
2024-03-04T03:29:09.390Z,30.30
2024-03-04T03:31:40.287Z,30.40
2024-03-04T03:34:10.828Z,30.50
2024-03-04T03:36:46.917Z,30.40
2024-03-04T03:39:17.540Z,30.80
2024-03-04T03:41:47.671Z,31.00
2024-03-04T03:44:17.800Z,30.70
2024-03-04T03:46:48.348Z,30.50
2024-03-04T03:49:19.431Z,30.50
2024-03-04T03:51:49.615Z,30.50
2024-03-04T03:54:19.406Z,30.90
2024-03-04T03:56:49.633Z,31.20
2024-03-04T03:59:19.782Z,31.20
2024-03-04T04:01:49.946Z,31.50
2024-03-04T04:04:20.566Z,31.80
2024-03-04T04:06:50.638Z,31.70
2024-03-04T04:09:20.548Z,31.90
2024-03-04T04:11:50.593Z,31.70
2024-03-04T04:14:20.489Z,31.50
2024-03-04T04:16:52.015Z,31.70
2024-03-04T04:19:22.358Z,31.80
2024-03-04T04:21:54.328Z,31.50
2024-03-04T04:24:24.551Z,31.50
2024-03-04T04:26:54.442Z,31.40
2024-03-04T04:29:24.625Z,31.60
2024-03-04T04:31:54.403Z,31.60
2024-03-04T04:34:24.979Z,31.90
2024-03-04T04:36:56.826Z,31.70
2024-03-04T04:39:28.704Z,31.50
2024-03-04T04:41:59.626Z,31.50
2024-03-04T04:44:29.940Z,31.50
2024-03-04T04:46:59.792Z,31.80
2024-03-04T04:49:29.882Z,31.70
2024-03-04T04:51:59.887Z,31.80
2024-03-04T04:54:30.217Z,32.10
2024-03-04T04:57:00.149Z,31.90
2024-03-04T04:59:30.353Z,31.90
2024-03-04T05:02:00.759Z,32.20
2024-03-04T05:04:43.875Z,32.00
2024-03-04T05:07:21.285Z,32.30
2024-03-04T05:09:51.341Z,32.50
2024-03-04T05:12:22.378Z,32.70
2024-03-04T05:14:53.161Z,32.90
2024-03-04T05:17:23.517Z,32.60
2024-03-04T05:19:53.454Z,32.80
2024-03-04T05:22:26.287Z,32.90
2024-03-04T05:24:58.613Z,33.20
2024-03-04T05:27:30.863Z,33.10
2024-03-04T05:30:01.665Z,33.30
2024-03-04T05:32:31.570Z,33.20
2024-03-04T05:35:02.681Z,33.00
2024-03-04T05:37:33.087Z,33.00
2024-03-04T05:40:02.986Z,32.90
2024-03-04T05:42:33.148Z,33.20
2024-03-04T05:45:03.017Z,33.80
2024-03-04T05:47:33.084Z,33.70
2024-03-04T05:50:02.935Z,33.80
2024-03-04T05:52:33.488Z,34.00
2024-03-04T05:55:03.763Z,34.10
2024-03-04T05:57:34.609Z,34.20
2024-03-04T06:00:14.705Z,34.50
2024-03-04T06:02:45.612Z,34.70
2024-03-04T06:05:16.784Z,34.70
2024-03-04T06:07:47.404Z,34.60
2024-03-04T06:10:18.662Z,34.60
2024-03-04T06:12:49.312Z,35.00
2024-03-04T06:15:19.216Z,35.30
2024-03-04T06:17:49.540Z,35.30
2024-03-04T06:20:19.552Z,35.10
2024-03-04T06:22:52.808Z,35.20
2024-03-04T06:25:23.600Z,35.30
2024-03-04T06:27:55.458Z,35.00
2024-03-04T06:30:26.423Z,34.80
2024-03-04T06:32:56.265Z,34.80
2024-03-04T06:35:26.736Z,35.00
2024-03-04T06:37:56.653Z,35.10
2024-03-04T06:40:27.734Z,35.10
2024-03-04T06:42:58.111Z,35.30
2024-03-04T06:45:28.860Z,35.30
2024-03-04T06:48:05.025Z,35.20
2024-03-04T06:50:38.042Z,35.00
2024-03-04T06:53:11.695Z,35.10
2024-03-04T06:55:42.126Z,34.90
2024-03-04T06:58:12.084Z,34.80
2024-03-04T07:00:43.234Z,35.00
2024-03-04T07:03:13.751Z,34.90
2024-03-04T07:05:43.527Z,35.00
2024-03-04T07:08:14.063Z,35.10
2024-03-04T07:10:47.958Z,35.40
2024-03-04T07:13:18.084Z,35.60
2024-03-04T07:15:53.947Z,35.60
2024-03-04T07:18:23.938Z,35.80
2024-03-04T07:20:53.732Z,35.70
2024-03-04T07:23:24.797Z,35.50
2024-03-04T07:25:55.549Z,35.60
2024-03-04T07:28:26.100Z,35.90
2024-03-04T07:30:56.675Z,36.10
2024-03-04T07:33:26.558Z,36.20
2024-03-04T07:35:56.489Z,36.10
2024-03-04T07:38:26.670Z,35.90
2024-03-04T07:40:58.004Z,35.80
2024-03-04T07:43:30.791Z,36.10
2024-03-04T07:46:00.966Z,36.40
2024-03-04T07:48:30.782Z,36.10
2024-03-04T07:51:01.172Z,35.90
2024-03-04T07:53:30.986Z,36.00
2024-03-04T07:56:01.324Z,36.00
2024-03-04T07:58:31.242Z,36.20
2024-03-04T08:01:01.962Z,36.30
2024-03-04T08:03:31.837Z,36.70
2024-03-04T08:06:02.837Z,36.90
2024-03-04T08:08:32.589Z,36.50
2024-03-04T08:11:03.584Z,36.20
2024-03-04T08:13:33.917Z,36.20
2024-03-04T08:16:04.324Z,36.30
2024-03-04T08:18:34.902Z,36.30
2024-03-04T08:21:05.334Z,36.40
2024-03-04T08:23:37.019Z,36.30
2024-03-04T08:26:07.985Z,36.50
2024-03-04T08:28:38.301Z,36.60
2024-03-04T08:31:09.335Z,36.50
2024-03-04T08:33:39.571Z,36.50
2024-03-04T08:36:11.069Z,36.50
2024-03-04T08:38:44.828Z,36.50
2024-03-04T08:41:15.328Z,36.60
2024-03-04T08:43:46.372Z,36.40
2024-03-04T08:46:19.867Z,36.40
2024-03-04T08:48:50.237Z,36.60
2024-03-04T08:51:23.954Z,36.30
2024-03-04T08:53:54.274Z,36.30
2024-03-04T08:56:25.161Z,36.30
2024-03-04T08:58:55.865Z,36.20
2024-03-04T09:01:27.723Z,36.30
2024-03-04T09:03:58.506Z,36.10
2024-03-04T09:06:28.584Z,35.90
2024-03-04T09:08:59.801Z,35.90
2024-03-04T09:11:30.101Z,35.70
2024-03-04T09:14:00.095Z,35.40
2024-03-04T09:16:30.218Z,35.30
2024-03-04T09:19:01.015Z,35.30
2024-03-04T09:21:31.138Z,35.40
2024-03-04T09:24:03.091Z,35.30
2024-03-04T09:26:33.324Z,35.20
2024-03-04T09:29:04.473Z,35.30
2024-03-04T09:31:36.384Z,35.50
2024-03-04T09:34:07.486Z,35.40
2024-03-04T09:36:37.317Z,35.40
2024-03-04T09:39:09.686Z,35.30
2024-03-04T09:41:41.582Z,35.30
2024-03-04T09:44:12.393Z,35.10
2024-03-04T09:46:44.782Z,34.90
2024-03-04T09:49:16.535Z,35.00
2024-03-04T09:51:50.255Z,34.90
2024-03-04T09:54:22.751Z,34.80
2024-03-04T09:56:54.102Z,34.80
2024-03-04T09:59:25.211Z,34.70
2024-03-04T10:01:56.194Z,34.60
2024-03-04T10:04:26.981Z,34.60
2024-03-04T10:06:58.538Z,34.60
2024-03-04T10:09:30.865Z,34.50
2024-03-04T10:12:05.613Z,34.50
2024-03-04T10:14:36.359Z,34.40
2024-03-04T10:17:06.934Z,34.40
2024-03-04T10:19:37.995Z,34.30
2024-03-04T10:22:09.916Z,34.30
2024-03-04T10:24:42.846Z,34.20
2024-03-04T10:27:14.775Z,34.10
2024-03-04T10:29:45.040Z,34.00
2024-03-04T10:32:20.096Z,34.10
2024-03-04T10:34:54.014Z,34.00
2024-03-04T10:37:24.249Z,33.90
2024-03-04T10:39:55.916Z,33.90
2024-03-04T10:42:26.562Z,33.90
2024-03-04T10:44:56.883Z,33.80
2024-03-04T10:47:29.185Z,33.70
2024-03-04T10:50:00.184Z,33.70
2024-03-04T10:52:31.153Z,33.60
2024-03-04T10:55:05.280Z,33.50
2024-03-04T10:57:37.206Z,33.40
2024-03-04T11:00:28.413Z,33.40
2024-03-04T11:03:20.678Z,33.30
2024-03-04T11:05:53.913Z,33.30
2024-03-04T11:08:48.475Z,33.20
2024-03-04T11:11:28.484Z,33.20
2024-03-04T11:14:22.574Z,33.10
2024-03-04T11:17:01.882Z,33.00
2024-03-04T11:19:55.966Z,33.00
2024-03-04T11:22:28.331Z,33.10
2024-03-04T11:25:00.185Z,33.10
2024-03-04T11:27:31.858Z,33.10
2024-03-04T11:30:03.439Z,33.00
2024-03-04T11:32:34.617Z,33.00
2024-03-04T11:35:10.637Z,33.00
2024-03-04T11:38:20.279Z,33.10
2024-03-04T11:40:58.967Z,33.10
2024-03-04T11:43:49.587Z,32.80
2024-03-04T11:46:23.296Z,32.80
2024-03-04T11:48:54.948Z,32.80
2024-03-04T11:51:46.304Z,32.80
2024-03-04T11:54:16.405Z,32.60
2024-03-04T11:56:46.988Z,32.60
2024-03-04T11:59:17.387Z,32.60
2024-03-04T12:01:48.196Z,32.80
2024-03-04T12:04:21.062Z,32.90
2024-03-04T12:06:51.369Z,33.00
2024-03-04T12:09:43.868Z,32.50
2024-03-04T12:12:16.202Z,32.50
2024-03-04T12:14:49.443Z,32.40
2024-03-04T12:17:19.640Z,32.40
2024-03-04T12:19:59.875Z,32.50
2024-03-04T12:22:33.511Z,32.60
2024-03-04T12:25:12.140Z,32.60
2024-03-04T12:27:42.825Z,32.40
2024-03-04T12:30:31.162Z,32.10
2024-03-04T12:33:04.761Z,32.10
2024-03-04T12:35:35.611Z,32.10
2024-03-04T12:38:09.367Z,32.10
2024-03-04T12:40:39.772Z,32.10
2024-03-04T12:43:12.887Z,32.10
2024-03-04T12:45:43.248Z,32.10
2024-03-04T12:48:14.434Z,32.00
2024-03-04T12:50:45.853Z,31.90
2024-03-04T12:53:17.404Z,31.80
2024-03-04T12:55:50.631Z,31.80
2024-03-04T12:58:20.732Z,31.70
2024-03-04T13:00:51.087Z,31.70
2024-03-04T13:03:21.393Z,31.60
2024-03-04T13:05:53.672Z,31.50
2024-03-04T13:08:24.255Z,31.60
2024-03-04T13:10:54.220Z,31.50
2024-03-04T13:13:24.414Z,31.40
2024-03-04T13:15:56.971Z,31.20
2024-03-04T13:18:28.724Z,31.30
2024-03-04T13:20:58.767Z,31.30
2024-03-04T13:23:28.582Z,31.30
2024-03-04T13:26:00.169Z,31.20
2024-03-04T13:28:30.310Z,31.00
2024-03-04T13:31:00.228Z,31.10
2024-03-04T13:33:30.500Z,30.90
2024-03-04T13:36:01.982Z,31.00
2024-03-04T13:38:34.297Z,31.10
2024-03-04T13:41:05.144Z,30.90
2024-03-04T13:43:36.693Z,31.00
2024-03-04T13:46:07.298Z,31.00
2024-03-04T13:48:38.472Z,31.00
2024-03-04T13:51:08.637Z,31.00
2024-03-04T13:53:40.209Z,30.90
2024-03-04T13:56:11.202Z,30.70
2024-03-04T13:58:41.310Z,30.70
2024-03-04T14:01:14.178Z,30.60
2024-03-04T14:03:44.604Z,30.60
2024-03-04T14:06:17.691Z,30.60
2024-03-04T14:08:48.589Z,30.50
2024-03-04T14:11:18.740Z,30.50
2024-03-04T14:13:49.057Z,30.40
2024-03-04T14:16:19.534Z,30.20
2024-03-04T14:18:49.912Z,29.90
2024-03-04T14:21:19.727Z,29.80
2024-03-04T14:23:50.114Z,29.70
2024-03-04T14:26:22.932Z,29.70
2024-03-04T14:28:53.146Z,29.80
2024-03-04T14:31:23.329Z,30.00
2024-03-04T14:33:53.833Z,30.10
2024-03-04T14:36:24.016Z,30.30
2024-03-04T14:38:54.357Z,30.40
2024-03-04T14:41:25.010Z,30.30
2024-03-04T14:43:55.491Z,30.20
2024-03-04T14:46:25.507Z,30.20
2024-03-04T14:48:56.584Z,30.30
2024-03-04T14:51:26.839Z,30.00
2024-03-04T14:53:56.839Z,30.20
2024-03-04T14:56:30.911Z,30.20
2024-03-04T14:59:03.948Z,29.90
2024-03-04T15:01:35.646Z,30.10
2024-03-04T15:04:07.738Z,30.10
2024-03-04T15:06:39.165Z,30.10
2024-03-04T15:09:11.488Z,30.20
2024-03-04T15:11:45.379Z,30.10
2024-03-04T15:14:15.625Z,30.10
2024-03-04T15:16:53.755Z,29.90
2024-03-04T15:19:25.304Z,29.80
2024-03-04T15:21:55.186Z,29.60
2024-03-04T15:24:25.375Z,29.90
2024-03-04T15:26:57.037Z,29.80
2024-03-04T15:29:27.393Z,29.50
2024-03-04T15:32:02.028Z,29.40
2024-03-04T15:34:33.028Z,29.80
2024-03-04T15:37:07.005Z,29.80
2024-03-04T15:39:37.405Z,29.70
2024-03-04T15:42:08.620Z,29.70
2024-03-04T15:44:42.045Z,29.70
2024-03-04T15:47:12.210Z,29.70
2024-03-04T15:49:42.388Z,29.40
2024-03-04T15:52:12.774Z,29.20
2024-03-04T15:54:44.353Z,29.20
2024-03-04T15:57:14.729Z,29.50
2024-03-04T15:59:44.584Z,29.20
2024-03-04T16:02:14.601Z,29.00
2024-03-04T16:04:48.846Z,29.10
2024-03-04T16:07:20.535Z,29.30
2024-03-04T16:09:50.821Z,29.40
2024-03-04T16:12:20.968Z,29.40
2024-03-04T16:14:51.465Z,29.40
2024-03-04T16:17:21.511Z,29.40
2024-03-04T16:19:51.990Z,29.30
2024-03-04T16:22:22.220Z,29.30
2024-03-04T16:24:53.668Z,29.20
2024-03-04T16:27:25.497Z,29.20
2024-03-04T16:29:55.960Z,28.90
2024-03-04T16:32:25.935Z,28.80
2024-03-04T16:34:56.382Z,28.60
2024-03-04T16:37:26.371Z,28.60
2024-03-04T16:39:57.053Z,28.80
2024-03-04T16:42:28.257Z,28.80
2024-03-04T16:44:58.402Z,28.90
2024-03-04T16:47:28.376Z,29.00
2024-03-04T16:49:58.722Z,29.00
2024-03-04T16:52:28.819Z,28.90
2024-03-04T16:54:59.843Z,29.00
2024-03-04T16:57:29.945Z,29.00
2024-03-04T16:59:59.857Z,28.80
2024-03-04T17:02:33.039Z,28.70
2024-03-04T17:05:03.384Z,28.80
2024-03-04T17:07:33.563Z,28.90
2024-03-04T17:10:03.776Z,28.80
2024-03-04T17:12:33.681Z,28.90
2024-03-04T17:15:04.048Z,28.70
2024-03-04T17:17:34.444Z,28.80
2024-03-04T17:20:11.202Z,28.80
2024-03-04T17:22:41.685Z,28.80
2024-03-04T17:25:11.900Z,28.80
2024-03-04T17:27:44.431Z,28.50
2024-03-04T17:30:15.223Z,28.50
2024-03-04T17:32:45.833Z,28.40
2024-03-04T17:35:17.439Z,28.30
2024-03-04T17:37:48.922Z,28.10
2024-03-04T17:40:19.334Z,28.00
2024-03-04T17:42:49.203Z,28.10
2024-03-04T17:45:19.673Z,28.10
2024-03-04T17:47:49.693Z,27.80
2024-03-04T17:50:19.906Z,27.80
2024-03-04T17:52:49.935Z,27.60
2024-03-04T17:55:20.369Z,27.60
2024-03-04T17:57:50.362Z,27.60
2024-03-04T18:00:21.219Z,27.70
2024-03-04T18:02:52.237Z,27.40
2024-03-04T18:05:22.514Z,27.40
2024-03-04T18:07:53.526Z,27.60
2024-03-04T18:10:24.427Z,27.30
2024-03-04T18:12:54.620Z,26.90
2024-03-04T18:15:24.430Z,27.10
2024-03-04T18:17:54.528Z,27.10
2024-03-04T18:20:24.382Z,27.10
2024-03-04T18:22:54.446Z,27.30
2024-03-04T18:25:24.386Z,27.10
2024-03-04T18:27:54.914Z,26.90
2024-03-04T18:30:24.712Z,27.00
2024-03-04T18:32:54.864Z,27.00
2024-03-04T18:35:24.795Z,27.30
2024-03-04T18:37:54.905Z,27.30
2024-03-04T18:40:25.105Z,27.40
2024-03-04T18:42:55.197Z,27.20
2024-03-04T18:45:25.166Z,27.30
2024-03-04T18:47:56.689Z,27.20
2024-03-04T18:50:28.160Z,27.10
2024-03-04T18:52:58.705Z,26.70
2024-03-04T18:55:28.930Z,26.70
2024-03-04T18:57:59.216Z,26.50
2024-03-04T19:00:30.283Z,26.60
2024-03-04T19:03:00.529Z,26.60
2024-03-04T19:05:33.634Z,26.80
2024-03-04T19:08:06.231Z,26.80
2024-03-04T19:10:36.373Z,26.60
2024-03-04T19:13:06.611Z,26.60
2024-03-04T19:15:36.871Z,26.80
2024-03-04T19:18:07.072Z,27.00
2024-03-04T19:20:41.607Z,26.90
2024-03-04T19:23:11.621Z,26.80
2024-03-04T19:25:41.514Z,26.40
2024-03-04T19:28:14.250Z,26.00
2024-03-04T19:30:46.477Z,26.20
2024-03-04T19:33:16.763Z,26.30
2024-03-04T19:35:47.746Z,26.20
2024-03-04T19:38:18.081Z,26.40
2024-03-04T19:40:48.167Z,26.30
2024-03-04T19:43:18.365Z,26.40
2024-03-04T19:45:48.253Z,26.50
2024-03-04T19:48:18.547Z,26.50
2024-03-04T19:50:51.499Z,26.40
2024-03-04T19:53:21.701Z,26.10
2024-03-04T19:55:51.756Z,25.90
2024-03-04T19:58:21.824Z,25.80
2024-03-04T20:00:51.778Z,25.90
2024-03-04T20:03:22.059Z,26.10
2024-03-04T20:05:52.459Z,25.90
2024-03-04T20:08:22.753Z,25.50
2024-03-04T20:10:52.858Z,25.80
2024-03-04T20:13:23.013Z,25.70
2024-03-04T20:15:52.968Z,25.60
2024-03-04T20:18:23.264Z,25.60
2024-03-04T20:20:53.156Z,25.80
2024-03-04T20:23:23.568Z,25.70
2024-03-04T20:25:53.821Z,25.60
2024-03-04T20:28:24.578Z,25.90
2024-03-04T20:30:55.032Z,26.00
2024-03-04T20:33:25.852Z,26.00
2024-03-04T20:35:55.782Z,25.90
2024-03-04T20:38:25.770Z,26.10
2024-03-04T20:40:55.795Z,26.20
2024-03-04T20:43:25.985Z,26.10
2024-03-04T20:45:55.859Z,26.20
2024-03-04T20:48:30.638Z,26.10
2024-03-04T20:51:00.913Z,26.00
2024-03-04T20:53:31.337Z,25.60
2024-03-04T20:56:01.639Z,25.40
2024-03-04T20:58:31.635Z,25.30
2024-03-04T21:01:01.765Z,25.30
2024-03-04T21:03:31.658Z,25.20
2024-03-04T21:06:03.242Z,25.20
2024-03-04T21:08:34.269Z,25.20
2024-03-04T21:11:04.659Z,25.10
2024-03-04T21:13:34.619Z,25.40
2024-03-04T21:16:04.620Z,25.50
2024-03-04T21:18:34.510Z,25.60
2024-03-04T21:21:04.746Z,25.60
2024-03-04T21:23:34.644Z,25.70
2024-03-04T21:26:04.892Z,25.90
2024-03-04T21:28:35.471Z,25.90
2024-03-04T21:31:06.463Z,25.80
2024-03-04T21:33:36.432Z,25.80
2024-03-04T21:36:06.458Z,25.70
2024-03-04T21:38:36.668Z,25.70
2024-03-04T21:41:06.580Z,25.70
2024-03-04T21:43:36.682Z,25.80
2024-03-04T21:46:06.607Z,25.60
2024-03-04T21:48:38.829Z,25.60
2024-03-04T21:51:09.122Z,25.50
2024-03-04T21:53:39.264Z,25.40
2024-03-04T21:56:13.082Z,25.30
2024-03-04T21:58:43.109Z,25.30
2024-03-04T22:01:26.149Z,25.20
2024-03-04T22:03:56.470Z,25.30
2024-03-04T22:06:26.413Z,24.90
2024-03-04T22:08:57.645Z,24.70
2024-03-04T22:11:28.022Z,24.90
2024-03-04T22:13:58.016Z,24.70
2024-03-04T22:16:28.959Z,24.70
2024-03-04T22:18:58.796Z,24.70
2024-03-04T22:21:28.850Z,24.80
2024-03-04T22:23:58.738Z,24.90
2024-03-04T22:26:28.782Z,25.20
2024-03-04T22:28:59.884Z,25.00
2024-03-04T22:31:30.240Z,25.00
2024-03-04T22:34:00.182Z,25.10
2024-03-04T22:36:30.218Z,24.70
2024-03-04T22:39:00.005Z,24.80
2024-03-04T22:41:30.369Z,24.70
2024-03-04T22:44:00.412Z,24.50
2024-03-04T22:46:30.486Z,24.60
2024-03-04T22:49:00.267Z,24.80
2024-03-04T22:51:31.369Z,24.90
2024-03-04T22:54:01.411Z,24.80
2024-03-04T22:56:31.927Z,24.90
2024-03-04T22:59:02.166Z,24.90
2024-03-04T23:01:33.014Z,24.80
2024-03-04T23:04:03.052Z,24.70
2024-03-04T23:06:33.154Z,24.60
2024-03-04T23:09:06.695Z,24.60
2024-03-04T23:11:36.915Z,24.60
2024-03-04T23:14:06.888Z,24.50
2024-03-04T23:16:37.148Z,24.30
2024-03-04T23:19:08.231Z,24.20
2024-03-04T23:21:38.396Z,24.10
2024-03-04T23:24:08.555Z,24.10
2024-03-04T23:26:38.500Z,24.20
2024-03-04T23:29:09.620Z,24.10
2024-03-04T23:31:39.740Z,24.30
2024-03-04T23:34:12.962Z,24.40
2024-03-04T23:36:43.209Z,24.60
2024-03-04T23:39:14.159Z,24.60
2024-03-04T23:41:44.310Z,24.60
2024-03-04T23:44:14.201Z,24.50
2024-03-04T23:46:44.302Z,24.60
2024-03-04T23:49:14.390Z,24.70
2024-03-04T23:51:45.374Z,24.80
2024-03-04T23:54:16.771Z,24.60
2024-03-04T23:56:46.972Z,24.90
2024-03-04T23:59:16.777Z,24.90
